TABULAR FORECAST OF EN-ROUTE CONDITIONS LOW LEVEL MODEL TA1

DATE: JULY 29, 2014 HEIGHT IN FEET MSL

VALID FOR DEPARTURE BETWEEN: 15.00UTC AND 22.00UTC

AND ARRIVAL BETWEEN: 15.00UTC AND 22.00UTC

SPECIAL FEATURES OF THE METEOROLOGICAL SITUATION:
NO SPECIAL FEATURE

07° N                                 4° N                            2° N

UPPER WINDS

(DEGREES TRUE AND KNOTS)

                              10000FT

                              5000FT

TEMPERATURE 2000FT

(DEGREES CELSIUS)

                 

                             

                                100/15   PS 09

                                090/20   PS 17

                                130/15   PS 21

 

CLOUDS

                   XXX

ISOL TCU ——

                   1800  

                8000

SCT CU  ——  

                2000

VISIBILITY

5 – 10KM IN SHOWERS

3 – 5KM IN MODERATE SHOWERS

SIGNIFICANT WEATHER

LOCALLY A FEW SHOWERS, BRIEFLY MODERATE

AN ISOLATED THUNDERSTORM AND/OR HEAVY SHOWER POSSIBLE

HEIGHT OF 0ºC ISOTHERM (ft)

+/- 15000

FORECAST LOWEST QNH (hPa)

1012

SUPPLEMENTARY INFORMATION

Issued at NMC on: 15.00UTC JULY 29, 2014 BY FORECASTER: D. SAMUEL.

 

Note:

1.   Positive and negative values are indicated by the prefix “PS” (plus) and “MS” (minus) respectively.

2.   When a single numerical value of an element is given in a forecast it is to be interpreted as representing

the most probable mean of a range of values which the element may assume during the period of the forecast.

 

ABBREVIATIONS: SKC – 0 oktas, FEW – 1 to 2 oktas, SCT – 3 to 4 oktas, BKN – 5 to 7 oktas, OVC – 8 oktas,

LYR – Layered, LOC – Locally, ISOL – Isolated, OCNL – Occasional, FRQ – Frequent, EMBD – Embedded.

 

METAR SMJP 291500Z 10003KT 9999 SCT035 31/23 Q1016 NOSIG=

METAR SMZO 291500Z 12006KT 9999 SCT025 31/22 Q1016 NOSIG=

METAR SMNI 291500Z 11007KT 9999 SCT020 30/24 Q1016=